sensor_id;sensor_type;location;lat;lon;timestamp;temperature;humidity
47921;DHT22;33686;48.770;9.186;2023-05-10T05:16:38;14.30;99.90
47921;DHT22;33686;48.770;9.186;2023-05-10T05:19:04;14.50;99.90
47921;DHT22;33686;48.770;9.186;2023-05-10T05:21:29;14.50;99.90
47921;DHT22;33686;48.770;9.186;2023-05-10T05:23:55;14.50;99.90
47921;DHT22;33686;48.770;9.186;2023-05-10T05:26:20;14.50;99.90
47921;DHT22;33686;48.770;9.186;2023-05-10T05:28:46;14.50;99.90
47921;DHT22;33686;48.770;9.186;2023-05-10T05:31:13;14.50;99.90
47921;DHT22;33686;48.770;9.186;2023-05-10T05:33:39;14.40;99.90
47921;DHT22;33686;48.770;9.186;2023-05-10T05:36:05;14.50;99.90
47921;DHT22;33686;48.770;9.186;2023-05-10T05:38:30;14.50;99.90
47921;DHT22;33686;48.770;9.186;2023-05-10T05:40:56;14.50;99.90
47921;DHT22;33686;48.770;9.186;2023-05-10T05:43:22;14.60;99.90
47921;DHT22;33686;48.770;9.186;2023-05-10T05:45:47;14.70;99.90
47921;DHT22;33686;48.770;9.186;2023-05-10T05:48:13;14.70;99.90
47921;DHT22;33686;48.770;9.186;2023-05-10T05:50:38;14.70;99.90
47921;DHT22;33686;48.770;9.186;2023-05-10T05:53:04;14.80;99.90
47921;DHT22;33686;48.770;9.186;2023-05-10T05:55:29;14.70;99.90
47921;DHT22;33686;48.770;9.186;2023-05-10T05:57:57;14.90;99.90
47921;DHT22;33686;48.770;9.186;2023-05-10T06:00:22;14.90;99.90
47921;DHT22;33686;48.770;9.186;2023-05-10T06:02:48;14.90;99.90
47921;DHT22;33686;48.770;9.186;2023-05-10T06:05:14;15.00;99.90
47921;DHT22;33686;48.770;9.186;2023-05-10T06:07:39;14.80;99.90
47921;DHT22;33686;48.770;9.186;2023-05-10T06:10:07;14.90;99.90
47921;DHT22;33686;48.770;9.186;2023-05-10T06:12:33;14.90;99.90
47921;DHT22;33686;48.770;9.186;2023-05-10T06:14:59;15.00;99.90
47921;DHT22;33686;48.770;9.186;2023-05-10T06:17:24;15.00;99.90
47921;DHT22;33686;48.770;9.186;2023-05-10T06:19:50;15.10;99.90
47921;DHT22;33686;48.770;9.186;2023-05-10T06:22:16;15.10;99.90
47921;DHT22;33686;48.770;9.186;2023-05-10T06:24:41;15.20;99.90
47921;DHT22;33686;48.770;9.186;2023-05-10T06:27:07;15.20;99.90
47921;DHT22;33686;48.770;9.186;2023-05-10T06:29:32;15.10;99.90
47921;DHT22;33686;48.770;9.186;2023-05-10T06:31:58;15.20;99.90
47921;DHT22;33686;48.770;9.186;2023-05-10T06:34:24;15.10;99.90
47921;DHT22;33686;48.770;9.186;2023-05-10T06:36:49;15.10;99.90
47921;DHT22;33686;48.770;9.186;2023-05-10T06:39:15;15.10;99.90
47921;DHT22;33686;48.770;9.186;2023-05-10T06:41:41;15.10;99.90
47921;DHT22;33686;48.770;9.186;2023-05-10T06:44:07;15.10;99.90
47921;DHT22;33686;48.770;9.186;2023-05-10T06:46:33;15.10;99.90
47921;DHT22;33686;48.770;9.186;2023-05-10T06:48:59;15.10;99.90
47921;DHT22;33686;48.770;9.186;2023-05-10T06:51:25;15.10;99.90
47921;DHT22;33686;48.770;9.186;2023-05-10T06:53:51;15.10;99.90
47921;DHT22;33686;48.770;9.186;2023-05-10T06:56:16;15.00;99.90
47921;DHT22;33686;48.770;9.186;2023-05-10T06:58:42;15.00;99.90
47921;DHT22;33686;48.770;9.186;2023-05-10T07:01:08;15.00;99.90
47921;DHT22;33686;48.770;9.186;2023-05-10T07:03:33;14.90;99.90
47921;DHT22;33686;48.770;9.186;2023-05-10T07:06:02;14.90;99.90
47921;DHT22;33686;48.770;9.186;2023-05-10T07:08:33;14.80;99.90
47921;DHT22;33686;48.770;9.186;2023-05-10T07:10:59;15.00;99.90
47921;DHT22;33686;48.770;9.186;2023-05-10T07:13:25;15.00;99.90
47921;DHT22;33686;48.770;9.186;2023-05-10T07:15:51;15.10;99.90
47921;DHT22;33686;48.770;9.186;2023-05-10T07:18:16;15.40;99.90
47921;DHT22;33686;48.770;9.186;2023-05-10T07:20:42;15.60;99.90
47921;DHT22;33686;48.770;9.186;2023-05-10T07:23:07;15.80;99.90
47921;DHT22;33686;48.770;9.186;2023-05-10T07:25:33;16.10;99.90
47921;DHT22;33686;48.770;9.186;2023-05-10T07:27:58;16.30;99.90
47921;DHT22;33686;48.770;9.186;2023-05-10T07:30:24;16.40;99.90
47921;DHT22;33686;48.770;9.186;2023-05-10T07:32:49;16.60;99.90
47921;DHT22;33686;48.770;9.186;2023-05-10T07:35:15;16.70;99.90
47921;DHT22;33686;48.770;9.186;2023-05-10T07:37:40;16.70;99.90
47921;DHT22;33686;48.770;9.186;2023-05-10T07:40:06;16.60;99.90
47921;DHT22;33686;48.770;9.186;2023-05-10T07:42:32;16.70;99.90
47921;DHT22;33686;48.770;9.186;2023-05-10T07:44:57;16.80;99.90
47921;DHT22;33686;48.770;9.186;2023-05-10T07:47:23;16.90;99.90
47921;DHT22;33686;48.770;9.186;2023-05-10T07:49:49;16.90;99.90
47921;DHT22;33686;48.770;9.186;2023-05-10T07:52:14;16.90;99.90
47921;DHT22;33686;48.770;9.186;2023-05-10T07:54:40;16.90;99.90
47921;DHT22;33686;48.770;9.186;2023-05-10T07:57:06;16.90;99.90
47921;DHT22;33686;48.770;9.186;2023-05-10T07:59:31;16.90;99.90
47921;DHT22;33686;48.770;9.186;2023-05-10T08:01:58;16.70;99.90
47921;DHT22;33686;48.770;9.186;2023-05-10T08:04:23;16.90;99.90
47921;DHT22;33686;48.770;9.186;2023-05-10T08:06:49;16.90;99.90
47921;DHT22;33686;48.770;9.186;2023-05-10T08:09:15;16.80;99.90
47921;DHT22;33686;48.770;9.186;2023-05-10T08:11:41;16.80;99.90
47921;DHT22;33686;48.770;9.186;2023-05-10T08:14:06;16.80;99.90
47921;DHT22;33686;48.770;9.186;2023-05-10T08:16:32;16.70;99.90
47921;DHT22;33686;48.770;9.186;2023-05-10T08:18:57;16.80;99.90
47921;DHT22;33686;48.770;9.186;2023-05-10T08:21:23;16.70;99.90
47921;DHT22;33686;48.770;9.186;2023-05-10T08:23:49;16.80;99.90
47921;DHT22;33686;48.770;9.186;2023-05-10T08:26:15;16.90;99.90
47921;DHT22;33686;48.770;9.186;2023-05-10T08:28:40;16.90;99.90
47921;DHT22;33686;48.770;9.186;2023-05-10T08:31:06;16.90;99.90
47921;DHT22;33686;48.770;9.186;2023-05-10T08:33:31;16.60;99.90
47921;DHT22;33686;48.770;9.186;2023-05-10T08:35:57;16.50;99.90
47921;DHT22;33686;48.770;9.186;2023-05-10T08:38:22;16.40;99.90
47921;DHT22;33686;48.770;9.186;2023-05-10T08:40:48;16.60;99.90
47921;DHT22;33686;48.770;9.186;2023-05-10T08:43:14;16.20;99.90
47921;DHT22;33686;48.770;9.186;2023-05-10T08:45:43;16.40;99.90
47921;DHT22;33686;48.770;9.186;2023-05-10T08:48:10;16.40;99.90
47921;DHT22;33686;48.770;9.186;2023-05-10T08:50:37;16.50;99.90
47921;DHT22;33686;48.770;9.186;2023-05-10T08:53:06;16.10;99.90
47921;DHT22;33686;48.770;9.186;2023-05-10T08:55:34;16.30;99.90
47921;DHT22;33686;48.770;9.186;2023-05-10T08:58:02;16.50;99.90
47921;DHT22;33686;48.770;9.186;2023-05-10T09:00:27;16.70;99.90
47921;DHT22;33686;48.770;9.186;2023-05-10T09:02:53;16.80;99.90
47921;DHT22;33686;48.770;9.186;2023-05-10T09:05:19;16.80;99.90
47921;DHT22;33686;48.770;9.186;2023-05-10T09:07:44;16.90;99.90
47921;DHT22;33686;48.770;9.186;2023-05-10T09:10:10;16.80;99.90
47921;DHT22;33686;48.770;9.186;2023-05-10T09:12:36;17.20;99.90
47921;DHT22;33686;48.770;9.186;2023-05-10T09:15:01;17.30;99.90
47921;DHT22;33686;48.770;9.186;2023-05-10T09:17:27;17.50;99.90
47921;DHT22;33686;48.770;9.186;2023-05-10T09:20:00;17.30;99.90
47921;DHT22;33686;48.770;9.186;2023-05-10T09:22:26;17.00;99.90
47921;DHT22;33686;48.770;9.186;2023-05-10T09:25:14;16.90;99.90
47921;DHT22;33686;48.770;9.186;2023-05-10T09:27:39;16.60;99.90
47921;DHT22;33686;48.770;9.186;2023-05-10T09:30:05;16.80;99.90
47921;DHT22;33686;48.770;9.186;2023-05-10T09:32:41;16.80;99.90
47921;DHT22;33686;48.770;9.186;2023-05-10T09:35:07;16.70;99.90
47921;DHT22;33686;48.770;9.186;2023-05-10T09:37:33;16.70;99.90
47921;DHT22;33686;48.770;9.186;2023-05-10T09:39:59;16.90;99.90
47921;DHT22;33686;48.770;9.186;2023-05-10T09:42:24;17.00;99.90
47921;DHT22;33686;48.770;9.186;2023-05-10T09:44:50;17.30;99.90
47921;DHT22;33686;48.770;9.186;2023-05-10T09:47:19;17.40;99.90
47921;DHT22;33686;48.770;9.186;2023-05-10T09:49:48;17.30;99.90
47921;DHT22;33686;48.770;9.186;2023-05-10T09:52:14;17.50;99.90
47921;DHT22;33686;48.770;9.186;2023-05-10T09:54:42;17.50;99.90
47921;DHT22;33686;48.770;9.186;2023-05-10T09:57:18;17.70;99.90
47921;DHT22;33686;48.770;9.186;2023-05-10T09:59:45;17.70;99.90
47921;DHT22;33686;48.770;9.186;2023-05-10T10:02:11;17.80;99.90
47921;DHT22;33686;48.770;9.186;2023-05-10T10:04:40;18.00;99.90
47921;DHT22;33686;48.770;9.186;2023-05-10T10:07:06;17.80;99.90
47921;DHT22;33686;48.770;9.186;2023-05-10T10:09:32;18.20;99.90
47921;DHT22;33686;48.770;9.186;2023-05-10T10:11:58;17.50;99.90
47921;DHT22;33686;48.770;9.186;2023-05-10T10:14:24;17.60;99.90
47921;DHT22;33686;48.770;9.186;2023-05-10T10:16:50;17.90;99.90
47921;DHT22;33686;48.770;9.186;2023-05-10T10:19:17;17.60;99.90
47921;DHT22;33686;48.770;9.186;2023-05-10T10:21:43;17.30;99.90
47921;DHT22;33686;48.770;9.186;2023-05-10T10:24:08;17.00;99.90
47921;DHT22;33686;48.770;9.186;2023-05-10T10:26:34;16.90;99.90
47921;DHT22;33686;48.770;9.186;2023-05-10T10:31:46;17.10;99.90
47921;DHT22;33686;48.770;9.186;2023-05-10T10:34:25;17.60;99.90
47921;DHT22;33686;48.770;9.186;2023-05-10T10:36:52;17.90;99.90
47921;DHT22;33686;48.770;9.186;2023-05-10T10:39:17;17.90;99.90
47921;DHT22;33686;48.770;9.186;2023-05-10T10:41:53;17.80;99.90
47921;DHT22;33686;48.770;9.186;2023-05-10T10:47:08;17.90;99.90
47921;DHT22;33686;48.770;9.186;2023-05-10T10:49:37;17.60;99.90
47921;DHT22;33686;48.770;9.186;2023-05-10T10:52:22;17.20;99.90
47921;DHT22;33686;48.770;9.186;2023-05-10T10:57:21;16.70;99.90
47921;DHT22;33686;48.770;9.186;2023-05-10T10:59:47;16.40;99.90
47921;DHT22;33686;48.770;9.186;2023-05-10T11:04:57;16.30;99.90
47921;DHT22;33686;48.770;9.186;2023-05-10T11:07:22;16.00;99.90
47921;DHT22;33686;48.770;9.186;2023-05-10T11:09:48;15.90;99.90
47921;DHT22;33686;48.770;9.186;2023-05-10T11:12:14;16.00;99.90
47921;DHT22;33686;48.770;9.186;2023-05-10T11:14:39;15.80;99.90
47921;DHT22;33686;48.770;9.186;2023-05-10T11:17:26;15.70;99.90
47921;DHT22;33686;48.770;9.186;2023-05-10T11:20:09;15.70;99.90
47921;DHT22;33686;48.770;9.186;2023-05-10T11:22:48;15.60;99.90
47921;DHT22;33686;48.770;9.186;2023-05-10T11:25:14;15.70;99.90
47921;DHT22;33686;48.770;9.186;2023-05-10T11:27:41;15.90;99.90
47921;DHT22;33686;48.770;9.186;2023-05-10T11:30:06;16.00;99.90
47921;DHT22;33686;48.770;9.186;2023-05-10T11:32:33;16.10;99.90
47921;DHT22;33686;48.770;9.186;2023-05-10T11:34:58;16.10;99.90
47921;DHT22;33686;48.770;9.186;2023-05-10T11:37:24;16.20;99.90
47921;DHT22;33686;48.770;9.186;2023-05-10T11:39:49;16.30;99.90
47921;DHT22;33686;48.770;9.186;2023-05-10T11:42:15;16.60;99.90
47921;DHT22;33686;48.770;9.186;2023-05-10T11:44:40;16.70;99.90
47921;DHT22;33686;48.770;9.186;2023-05-10T11:47:07;16.70;99.90
47921;DHT22;33686;48.770;9.186;2023-05-10T11:49:32;17.00;99.90
47921;DHT22;33686;48.770;9.186;2023-05-10T11:52:07;17.10;99.90
47921;DHT22;33686;48.770;9.186;2023-05-10T11:54:33;17.10;99.90
47921;DHT22;33686;48.770;9.186;2023-05-10T11:57:00;16.80;99.90
47921;DHT22;33686;48.770;9.186;2023-05-10T11:59:25;16.60;99.90
47921;DHT22;33686;48.770;9.186;2023-05-10T12:01:51;16.60;99.90
47921;DHT22;33686;48.770;9.186;2023-05-10T12:04:17;16.50;99.90
47921;DHT22;33686;48.770;9.186;2023-05-10T12:06:42;16.40;99.90
47921;DHT22;33686;48.770;9.186;2023-05-10T12:09:08;16.50;99.90
47921;DHT22;33686;48.770;9.186;2023-05-10T12:11:36;16.40;99.90
47921;DHT22;33686;48.770;9.186;2023-05-10T12:14:04;16.70;99.90
47921;DHT22;33686;48.770;9.186;2023-05-10T12:16:30;16.80;99.90
47921;DHT22;33686;48.770;9.186;2023-05-10T12:18:56;16.80;99.90
47921;DHT22;33686;48.770;9.186;2023-05-10T12:21:22;16.60;99.90
47921;DHT22;33686;48.770;9.186;2023-05-10T12:23:49;16.50;99.90
47921;DHT22;33686;48.770;9.186;2023-05-10T12:26:15;16.20;99.90
47921;DHT22;33686;48.770;9.186;2023-05-10T12:28:41;16.50;99.90
47921;DHT22;33686;48.770;9.186;2023-05-10T12:31:06;16.80;99.90
47921;DHT22;33686;48.770;9.186;2023-05-10T12:33:39;17.20;99.90
47921;DHT22;33686;48.770;9.186;2023-05-10T12:36:08;17.20;99.90
47921;DHT22;33686;48.770;9.186;2023-05-10T12:38:40;17.20;99.90
47921;DHT22;33686;48.770;9.186;2023-05-10T12:41:09;16.90;99.90
47921;DHT22;33686;48.770;9.186;2023-05-10T12:43:35;17.20;99.90
47921;DHT22;33686;48.770;9.186;2023-05-10T12:46:07;17.20;99.90
47921;DHT22;33686;48.770;9.186;2023-05-10T12:48:34;17.20;99.90
47921;DHT22;33686;48.770;9.186;2023-05-10T12:51:01;16.70;99.90
47921;DHT22;33686;48.770;9.186;2023-05-10T12:53:26;16.80;99.90
47921;DHT22;33686;48.770;9.186;2023-05-10T12:55:52;16.80;99.90
47921;DHT22;33686;48.770;9.186;2023-05-10T12:58:18;16.90;99.90
47921;DHT22;33686;48.770;9.186;2023-05-10T13:00:44;16.90;99.90
47921;DHT22;33686;48.770;9.186;2023-05-10T13:03:09;17.00;99.90
47921;DHT22;33686;48.770;9.186;2023-05-10T13:05:35;16.70;99.90
47921;DHT22;33686;48.770;9.186;2023-05-10T13:08:01;16.60;99.90
47921;DHT22;33686;48.770;9.186;2023-05-10T13:10:28;16.60;99.90
47921;DHT22;33686;48.770;9.186;2023-05-10T13:12:54;16.50;99.90
47921;DHT22;33686;48.770;9.186;2023-05-10T13:15:20;16.60;99.90
47921;DHT22;33686;48.770;9.186;2023-05-10T13:17:45;16.30;99.90
47921;DHT22;33686;48.770;9.186;2023-05-10T13:20:11;16.50;99.90
47921;DHT22;33686;48.770;9.186;2023-05-10T13:22:36;16.50;99.90
47921;DHT22;33686;48.770;9.186;2023-05-10T13:25:02;16.60;99.90
47921;DHT22;33686;48.770;9.186;2023-05-10T13:27:27;16.70;99.90
47921;DHT22;33686;48.770;9.186;2023-05-10T13:29:54;16.90;99.90
47921;DHT22;33686;48.770;9.186;2023-05-10T13:32:20;17.00;99.90
47921;DHT22;33686;48.770;9.186;2023-05-10T13:34:46;17.20;99.90
47921;DHT22;33686;48.770;9.186;2023-05-10T13:37:11;17.40;99.90
47921;DHT22;33686;48.770;9.186;2023-05-10T13:39:37;17.10;99.90
47921;DHT22;33686;48.770;9.186;2023-05-10T13:42:03;17.00;99.90
47921;DHT22;33686;48.770;9.186;2023-05-10T13:44:29;17.10;99.90
47921;DHT22;33686;48.770;9.186;2023-05-10T13:46:55;17.20;99.90
47921;DHT22;33686;48.770;9.186;2023-05-10T13:49:21;17.50;99.90
47921;DHT22;33686;48.770;9.186;2023-05-10T13:51:47;17.50;99.90
47921;DHT22;33686;48.770;9.186;2023-05-10T13:54:13;17.30;99.90
47921;DHT22;33686;48.770;9.186;2023-05-10T13:56:38;17.40;99.90
47921;DHT22;33686;48.770;9.186;2023-05-10T13:59:06;17.40;99.90
47921;DHT22;33686;48.770;9.186;2023-05-10T14:01:33;17.50;99.90
47921;DHT22;33686;48.770;9.186;2023-05-10T14:03:59;17.50;99.90
47921;DHT22;33686;48.770;9.186;2023-05-10T14:06:24;17.60;99.90
47921;DHT22;33686;48.770;9.186;2023-05-10T14:08:50;17.60;99.90
47921;DHT22;33686;48.770;9.186;2023-05-10T14:11:15;17.40;99.90
47921;DHT22;33686;48.770;9.186;2023-05-10T14:13:41;17.50;99.90
47921;DHT22;33686;48.770;9.186;2023-05-10T14:16:07;17.30;99.90
47921;DHT22;33686;48.770;9.186;2023-05-10T14:18:32;17.30;99.90
47921;DHT22;33686;48.770;9.186;2023-05-10T14:20:58;17.20;99.90
47921;DHT22;33686;48.770;9.186;2023-05-10T14:23:23;17.00;99.90
47921;DHT22;33686;48.770;9.186;2023-05-10T14:25:50;17.10;99.90
47921;DHT22;33686;48.770;9.186;2023-05-10T14:28:16;17.40;99.90
47921;DHT22;33686;48.770;9.186;2023-05-10T14:30:42;17.40;99.90
47921;DHT22;33686;48.770;9.186;2023-05-10T14:33:08;17.20;99.90
47921;DHT22;33686;48.770;9.186;2023-05-10T14:35:34;17.40;99.90
47921;DHT22;33686;48.770;9.186;2023-05-10T14:37:59;17.50;99.90
47921;DHT22;33686;48.770;9.186;2023-05-10T14:40:25;17.70;99.90
47921;DHT22;33686;48.770;9.186;2023-05-10T14:42:51;17.90;99.90
47921;DHT22;33686;48.770;9.186;2023-05-10T14:45:18;17.80;99.90
47921;DHT22;33686;48.770;9.186;2023-05-10T14:47:43;17.80;99.90
47921;DHT22;33686;48.770;9.186;2023-05-10T14:50:09;17.70;99.90
47921;DHT22;33686;48.770;9.186;2023-05-10T14:52:34;17.90;99.90
47921;DHT22;33686;48.770;9.186;2023-05-10T14:55:00;17.60;99.90
47921;DHT22;33686;48.770;9.186;2023-05-10T14:57:26;17.40;99.90
47921;DHT22;33686;48.770;9.186;2023-05-10T14:59:55;17.20;99.90
47921;DHT22;33686;48.770;9.186;2023-05-10T15:02:21;17.30;99.90
47921;DHT22;33686;48.770;9.186;2023-05-10T15:04:46;17.50;99.90
47921;DHT22;33686;48.770;9.186;2023-05-10T15:07:12;17.60;99.90
47921;DHT22;33686;48.770;9.186;2023-05-10T15:09:40;17.70;99.90
47921;DHT22;33686;48.770;9.186;2023-05-10T15:12:05;17.30;99.90
47921;DHT22;33686;48.770;9.186;2023-05-10T15:14:31;17.50;99.90
47921;DHT22;33686;48.770;9.186;2023-05-10T15:16:58;17.60;99.90
47921;DHT22;33686;48.770;9.186;2023-05-10T15:19:24;17.20;99.90
47921;DHT22;33686;48.770;9.186;2023-05-10T15:21:49;17.10;99.90
47921;DHT22;33686;48.770;9.186;2023-05-10T15:24:15;17.10;99.90
47921;DHT22;33686;48.770;9.186;2023-05-10T15:26:40;17.00;99.90
47921;DHT22;33686;48.770;9.186;2023-05-10T15:29:06;17.00;99.90
47921;DHT22;33686;48.770;9.186;2023-05-10T15:31:32;17.30;99.90
47921;DHT22;33686;48.770;9.186;2023-05-10T15:34:00;17.30;99.90
47921;DHT22;33686;48.770;9.186;2023-05-10T15:36:25;17.10;99.90
47921;DHT22;33686;48.770;9.186;2023-05-10T15:38:52;17.10;99.90
47921;DHT22;33686;48.770;9.186;2023-05-10T15:41:18;17.10;99.90
47921;DHT22;33686;48.770;9.186;2023-05-10T15:43:43;16.90;99.90
47921;DHT22;33686;48.770;9.186;2023-05-10T15:46:09;16.80;99.90
47921;DHT22;33686;48.770;9.186;2023-05-10T15:48:34;17.20;99.90
47921;DHT22;33686;48.770;9.186;2023-05-10T15:51:00;17.40;99.90
47921;DHT22;33686;48.770;9.186;2023-05-10T15:53:26;17.40;99.90
47921;DHT22;33686;48.770;9.186;2023-05-10T15:55:51;17.30;99.90
47921;DHT22;33686;48.770;9.186;2023-05-10T15:58:17;17.20;99.90
47921;DHT22;33686;48.770;9.186;2023-05-10T16:00:43;17.20;99.90
47921;DHT22;33686;48.770;9.186;2023-05-10T16:03:08;17.30;99.90
47921;DHT22;33686;48.770;9.186;2023-05-10T16:05:34;17.20;99.90
47921;DHT22;33686;48.770;9.186;2023-05-10T16:08:00;17.20;99.90
47921;DHT22;33686;48.770;9.186;2023-05-10T16:10:26;17.20;99.90
47921;DHT22;33686;48.770;9.186;2023-05-10T16:12:52;17.30;99.90
47921;DHT22;33686;48.770;9.186;2023-05-10T16:15:18;17.10;99.90
47921;DHT22;33686;48.770;9.186;2023-05-10T16:17:44;17.20;99.90
47921;DHT22;33686;48.770;9.186;2023-05-10T16:20:10;17.20;99.90
47921;DHT22;33686;48.770;9.186;2023-05-10T16:22:36;17.20;99.90
47921;DHT22;33686;48.770;9.186;2023-05-10T16:25:01;17.20;99.90
47921;DHT22;33686;48.770;9.186;2023-05-10T16:27:27;17.10;99.90
47921;DHT22;33686;48.770;9.186;2023-05-10T16:29:54;17.00;99.90
47921;DHT22;33686;48.770;9.186;2023-05-10T16:32:20;16.70;99.90
47921;DHT22;33686;48.770;9.186;2023-05-10T16:34:45;16.80;99.90
47921;DHT22;33686;48.770;9.186;2023-05-10T16:37:11;16.90;99.90
47921;DHT22;33686;48.770;9.186;2023-05-10T16:39:37;16.80;99.90
47921;DHT22;33686;48.770;9.186;2023-05-10T16:42:02;16.90;99.90
47921;DHT22;33686;48.770;9.186;2023-05-10T16:44:28;16.80;99.90
47921;DHT22;33686;48.770;9.186;2023-05-10T16:46:54;16.90;99.90
47921;DHT22;33686;48.770;9.186;2023-05-10T16:49:19;17.00;99.90
47921;DHT22;33686;48.770;9.186;2023-05-10T16:51:45;16.90;99.90
47921;DHT22;33686;48.770;9.186;2023-05-10T16:54:11;17.00;99.90
47921;DHT22;33686;48.770;9.186;2023-05-10T16:56:36;16.90;99.90
47921;DHT22;33686;48.770;9.186;2023-05-10T16:59:02;16.80;99.90
47921;DHT22;33686;48.770;9.186;2023-05-10T17:01:27;16.60;99.90
47921;DHT22;33686;48.770;9.186;2023-05-10T17:03:53;16.60;99.90
47921;DHT22;33686;48.770;9.186;2023-05-10T17:06:18;16.60;99.90
47921;DHT22;33686;48.770;9.186;2023-05-10T17:08:44;16.50;99.90
47921;DHT22;33686;48.770;9.186;2023-05-10T17:11:10;16.60;99.90
47921;DHT22;33686;48.770;9.186;2023-05-10T17:13:35;16.50;99.90
47921;DHT22;33686;48.770;9.186;2023-05-10T17:16:03;16.50;99.90
47921;DHT22;33686;48.770;9.186;2023-05-10T17:18:28;16.40;99.90
47921;DHT22;33686;48.770;9.186;2023-05-10T17:20:54;16.40;99.90
47921;DHT22;33686;48.770;9.186;2023-05-10T17:23:20;16.40;99.90
47921;DHT22;33686;48.770;9.186;2023-05-10T17:25:45;16.40;99.90
47921;DHT22;33686;48.770;9.186;2023-05-10T17:28:11;16.30;99.90
47921;DHT22;33686;48.770;9.186;2023-05-10T17:30:36;16.40;99.90
47921;DHT22;33686;48.770;9.186;2023-05-10T17:33:02;16.30;99.90
47921;DHT22;33686;48.770;9.186;2023-05-10T17:35:28;16.30;99.90
47921;DHT22;33686;48.770;9.186;2023-05-10T17:37:55;16.30;99.90
47921;DHT22;33686;48.770;9.186;2023-05-10T17:40:21;16.30;99.90
47921;DHT22;33686;48.770;9.186;2023-05-10T17:42:46;16.20;99.90
47921;DHT22;33686;48.770;9.186;2023-05-10T17:45:12;16.10;99.90
47921;DHT22;33686;48.770;9.186;2023-05-10T17:47:37;16.10;99.90
47921;DHT22;33686;48.770;9.186;2023-05-10T17:50:03;16.00;99.90
47921;DHT22;33686;48.770;9.186;2023-05-10T17:52:29;15.90;99.90
47921;DHT22;33686;48.770;9.186;2023-05-10T17:54:55;15.80;99.90
47921;DHT22;33686;48.770;9.186;2023-05-10T17:57:21;15.70;99.90
47921;DHT22;33686;48.770;9.186;2023-05-10T17:59:46;15.50;99.90
47921;DHT22;33686;48.770;9.186;2023-05-10T18:02:12;15.50;99.90
47921;DHT22;33686;48.770;9.186;2023-05-10T18:04:38;15.50;99.90
47921;DHT22;33686;48.770;9.186;2023-05-10T18:07:04;15.40;99.90
47921;DHT22;33686;48.770;9.186;2023-05-10T18:09:29;15.30;99.90
47921;DHT22;33686;48.770;9.186;2023-05-10T18:11:55;15.20;99.90
47921;DHT22;33686;48.770;9.186;2023-05-10T18:14:20;15.30;99.90
47921;DHT22;33686;48.770;9.186;2023-05-10T18:16:47;15.20;99.90
47921;DHT22;33686;48.770;9.186;2023-05-10T18:19:12;15.30;99.90
47921;DHT22;33686;48.770;9.186;2023-05-10T18:21:38;15.20;99.90
47921;DHT22;33686;48.770;9.186;2023-05-10T18:24:04;15.00;99.90
47921;DHT22;33686;48.770;9.186;2023-05-10T18:26:30;15.00;99.90
47921;DHT22;33686;48.770;9.186;2023-05-10T18:28:55;15.00;99.90
47921;DHT22;33686;48.770;9.186;2023-05-10T18:31:21;14.90;99.90
47921;DHT22;33686;48.770;9.186;2023-05-10T18:33:47;14.90;99.90
47921;DHT22;33686;48.770;9.186;2023-05-10T18:36:12;14.90;99.90
47921;DHT22;33686;48.770;9.186;2023-05-10T18:38:38;14.90;99.90
47921;DHT22;33686;48.770;9.186;2023-05-10T18:41:04;14.90;99.90
47921;DHT22;33686;48.770;9.186;2023-05-10T18:43:30;14.80;99.90
47921;DHT22;33686;48.770;9.186;2023-05-10T18:45:55;14.80;99.90
47921;DHT22;33686;48.770;9.186;2023-05-10T18:48:21;14.70;99.90
47921;DHT22;33686;48.770;9.186;2023-05-10T18:50:47;14.80;99.90
47921;DHT22;33686;48.770;9.186;2023-05-10T18:53:12;14.80;99.90
47921;DHT22;33686;48.770;9.186;2023-05-10T18:55:38;14.70;99.90
47921;DHT22;33686;48.770;9.186;2023-05-10T18:58:04;14.60;99.90
47921;DHT22;33686;48.770;9.186;2023-05-10T19:00:29;14.60;99.90
47921;DHT22;33686;48.770;9.186;2023-05-10T19:02:55;14.50;99.90
47921;DHT22;33686;48.770;9.186;2023-05-10T19:05:20;14.50;99.90
47921;DHT22;33686;48.770;9.186;2023-05-10T19:07:51;14.40;99.90
47921;DHT22;33686;48.770;9.186;2023-05-10T19:10:16;14.40;99.90
47921;DHT22;33686;48.770;9.186;2023-05-10T19:12:42;14.40;99.90
47921;DHT22;33686;48.770;9.186;2023-05-10T19:15:08;14.30;99.90
47921;DHT22;33686;48.770;9.186;2023-05-10T19:17:33;14.30;99.90
47921;DHT22;33686;48.770;9.186;2023-05-10T19:20:00;14.20;99.90
47921;DHT22;33686;48.770;9.186;2023-05-10T19:22:26;14.20;99.90
47921;DHT22;33686;48.770;9.186;2023-05-10T19:24:51;14.20;99.90
47921;DHT22;33686;48.770;9.186;2023-05-10T19:27:17;14.10;99.90
47921;DHT22;33686;48.770;9.186;2023-05-10T19:29:43;14.00;99.90
47921;DHT22;33686;48.770;9.186;2023-05-10T19:32:08;13.90;99.90
47921;DHT22;33686;48.770;9.186;2023-05-10T19:34:35;13.90;99.90
47921;DHT22;33686;48.770;9.186;2023-05-10T19:37:01;14.00;99.90
47921;DHT22;33686;48.770;9.186;2023-05-10T19:39:26;14.00;99.90
47921;DHT22;33686;48.770;9.186;2023-05-10T19:41:52;14.00;99.90
47921;DHT22;33686;48.770;9.186;2023-05-10T19:44:17;14.10;99.90
47921;DHT22;33686;48.770;9.186;2023-05-10T19:46:43;14.10;99.90
47921;DHT22;33686;48.770;9.186;2023-05-10T19:49:09;14.10;99.90
47921;DHT22;33686;48.770;9.186;2023-05-10T19:51:34;14.00;99.90
47921;DHT22;33686;48.770;9.186;2023-05-10T19:54:00;14.00;99.90
47921;DHT22;33686;48.770;9.186;2023-05-10T19:56:25;13.80;99.90
47921;DHT22;33686;48.770;9.186;2023-05-10T19:58:52;13.70;99.90
47921;DHT22;33686;48.770;9.186;2023-05-10T20:01:18;13.60;99.90
47921;DHT22;33686;48.770;9.186;2023-05-10T20:03:43;13.70;99.90
47921;DHT22;33686;48.770;9.186;2023-05-10T20:06:09;13.80;99.90
47921;DHT22;33686;48.770;9.186;2023-05-10T20:08:35;13.80;99.90
47921;DHT22;33686;48.770;9.186;2023-05-10T20:11:00;13.90;99.90
47921;DHT22;33686;48.770;9.186;2023-05-10T20:13:28;13.90;99.90
47921;DHT22;33686;48.770;9.186;2023-05-10T20:15:54;13.80;99.90
47921;DHT22;33686;48.770;9.186;2023-05-10T20:18:19;13.80;99.90
47921;DHT22;33686;48.770;9.186;2023-05-10T20:20:45;13.90;99.90
47921;DHT22;33686;48.770;9.186;2023-05-10T20:23:11;14.00;99.90
47921;DHT22;33686;48.770;9.186;2023-05-10T20:25:36;14.00;99.90
47921;DHT22;33686;48.770;9.186;2023-05-10T20:28:02;14.00;99.90
47921;DHT22;33686;48.770;9.186;2023-05-10T20:30:28;13.90;99.90
47921;DHT22;33686;48.770;9.186;2023-05-10T20:32:53;14.00;99.90
47921;DHT22;33686;48.770;9.186;2023-05-10T20:35:19;13.90;99.90
47921;DHT22;33686;48.770;9.186;2023-05-10T20:37:44;14.00;99.90
47921;DHT22;33686;48.770;9.186;2023-05-10T20:40:12;14.00;99.90
47921;DHT22;33686;48.770;9.186;2023-05-10T20:42:38;14.00;99.90
47921;DHT22;33686;48.770;9.186;2023-05-10T20:45:03;14.00;99.90
47921;DHT22;33686;48.770;9.186;2023-05-10T20:47:29;14.00;99.90
47921;DHT22;33686;48.770;9.186;2023-05-10T20:49:54;14.00;99.90